sensor_id;sensor_type;location;lat;lon;timestamp;P1;durP1;ratioP1;P2;durP2;ratioP2
74293;SDS011;64044;59.904;10.738;2024-01-30T00:02:22;15.35;;;5.55;;
74293;SDS011;64044;59.904;10.738;2024-01-30T00:04:47;43.65;;;12.48;;
74293;SDS011;64044;59.904;10.738;2024-01-30T00:07:13;29.13;;;8.35;;
74293;SDS011;64044;59.904;10.738;2024-01-30T00:09:39;22.08;;;7.70;;
74293;SDS011;64044;59.904;10.738;2024-01-30T00:12:05;18.48;;;7.30;;
74293;SDS011;64044;59.904;10.738;2024-01-30T00:14:31;30.05;;;8.35;;
74293;SDS011;64044;59.904;10.738;2024-01-30T00:16:57;22.55;;;8.18;;
74293;SDS011;64044;59.904;10.738;2024-01-30T00:19:23;22.80;;;9.23;;
74293;SDS011;64044;59.904;10.738;2024-01-30T00:21:48;21.67;;;8.40;;
74293;SDS011;64044;59.904;10.738;2024-01-30T00:24:14;27.60;;;8.77;;
74293;SDS011;64044;59.904;10.738;2024-01-30T00:26:40;27.17;;;7.13;;
74293;SDS011;64044;59.904;10.738;2024-01-30T00:29:06;14.15;;;5.85;;
74293;SDS011;64044;59.904;10.738;2024-01-30T00:31:31;26.75;;;9.07;;
74293;SDS011;64044;59.904;10.738;2024-01-30T00:33:57;17.58;;;6.68;;
74293;SDS011;64044;59.904;10.738;2024-01-30T00:36:23;16.55;;;6.72;;
74293;SDS011;64044;59.904;10.738;2024-01-30T00:38:49;16.75;;;5.13;;
74293;SDS011;64044;59.904;10.738;2024-01-30T00:41:15;15.18;;;5.55;;
74293;SDS011;64044;59.904;10.738;2024-01-30T00:43:43;15.60;;;5.25;;
74293;SDS011;64044;59.904;10.738;2024-01-30T00:46:08;14.15;;;5.35;;
74293;SDS011;64044;59.904;10.738;2024-01-30T00:48:34;14.02;;;5.35;;
74293;SDS011;64044;59.904;10.738;2024-01-30T00:51:00;12.98;;;5.80;;
74293;SDS011;64044;59.904;10.738;2024-01-30T00:53:26;14.75;;;6.32;;
74293;SDS011;64044;59.904;10.738;2024-01-30T00:55:52;12.02;;;4.57;;
74293;SDS011;64044;59.904;10.738;2024-01-30T00:58:17;13.80;;;4.50;;
74293;SDS011;64044;59.904;10.738;2024-01-30T01:00:44;10.73;;;5.32;;
74293;SDS011;64044;59.904;10.738;2024-01-30T01:03:10;16.08;;;6.00;;
74293;SDS011;64044;59.904;10.738;2024-01-30T01:05:35;13.93;;;5.30;;
74293;SDS011;64044;59.904;10.738;2024-01-30T01:08:01;13.43;;;5.93;;
74293;SDS011;64044;59.904;10.738;2024-01-30T01:10:27;30.95;;;10.43;;
74293;SDS011;64044;59.904;10.738;2024-01-30T01:12:53;34.40;;;12.18;;
74293;SDS011;64044;59.904;10.738;2024-01-30T01:15:19;34.85;;;10.88;;
74293;SDS011;64044;59.904;10.738;2024-01-30T01:17:45;30.40;;;10.25;;
74293;SDS011;64044;59.904;10.738;2024-01-30T01:20:11;19.08;;;7.25;;
74293;SDS011;64044;59.904;10.738;2024-01-30T01:22:37;20.33;;;7.88;;
74293;SDS011;64044;59.904;10.738;2024-01-30T01:25:06;21.77;;;7.78;;
74293;SDS011;64044;59.904;10.738;2024-01-30T01:27:33;18.77;;;6.43;;
74293;SDS011;64044;59.904;10.738;2024-01-30T01:29:59;21.33;;;7.40;;
74293;SDS011;64044;59.904;10.738;2024-01-30T01:32:25;18.48;;;7.13;;
74293;SDS011;64044;59.904;10.738;2024-01-30T01:34:51;13.50;;;6.35;;
74293;SDS011;64044;59.904;10.738;2024-01-30T01:37:17;13.95;;;6.55;;
74293;SDS011;64044;59.904;10.738;2024-01-30T01:39:43;25.67;;;6.05;;
74293;SDS011;64044;59.904;10.738;2024-01-30T01:42:08;16.15;;;5.80;;
74293;SDS011;64044;59.904;10.738;2024-01-30T01:44:34;12.80;;;5.28;;
74293;SDS011;64044;59.904;10.738;2024-01-30T01:47:00;13.57;;;5.00;;
74293;SDS011;64044;59.904;10.738;2024-01-30T01:49:27;14.13;;;5.40;;
74293;SDS011;64044;59.904;10.738;2024-01-30T01:51:54;14.60;;;5.28;;
74293;SDS011;64044;59.904;10.738;2024-01-30T01:54:21;14.00;;;5.55;;
74293;SDS011;64044;59.904;10.738;2024-01-30T01:56:49;12.50;;;4.65;;
74293;SDS011;64044;59.904;10.738;2024-01-30T01:59:16;14.48;;;5.13;;
74293;SDS011;64044;59.904;10.738;2024-01-30T02:01:43;12.68;;;5.38;;
74293;SDS011;64044;59.904;10.738;2024-01-30T02:04:10;12.80;;;5.13;;
74293;SDS011;64044;59.904;10.738;2024-01-30T02:06:36;10.50;;;4.45;;
74293;SDS011;64044;59.904;10.738;2024-01-30T02:09:03;9.13;;;4.30;;
74293;SDS011;64044;59.904;10.738;2024-01-30T02:11:29;11.40;;;4.78;;
74293;SDS011;64044;59.904;10.738;2024-01-30T02:13:56;9.52;;;4.43;;
74293;SDS011;64044;59.904;10.738;2024-01-30T02:16:27;10.73;;;4.57;;
74293;SDS011;64044;59.904;10.738;2024-01-30T02:18:53;13.43;;;4.60;;
74293;SDS011;64044;59.904;10.738;2024-01-30T02:21:19;8.90;;;4.57;;
74293;SDS011;64044;59.904;10.738;2024-01-30T02:23:46;10.55;;;5.07;;
74293;SDS011;64044;59.904;10.738;2024-01-30T02:26:12;10.52;;;4.75;;
74293;SDS011;64044;59.904;10.738;2024-01-30T02:28:38;13.68;;;5.53;;
74293;SDS011;64044;59.904;10.738;2024-01-30T02:31:04;12.00;;;4.88;;
74293;SDS011;64044;59.904;10.738;2024-01-30T02:33:30;16.17;;;6.07;;
74293;SDS011;64044;59.904;10.738;2024-01-30T02:35:55;11.43;;;4.82;;
74293;SDS011;64044;59.904;10.738;2024-01-30T02:38:21;15.70;;;5.47;;
74293;SDS011;64044;59.904;10.738;2024-01-30T02:40:48;12.77;;;5.13;;
74293;SDS011;64044;59.904;10.738;2024-01-30T02:43:15;12.80;;;5.45;;
74293;SDS011;64044;59.904;10.738;2024-01-30T02:45:41;16.25;;;5.70;;
74293;SDS011;64044;59.904;10.738;2024-01-30T02:48:07;11.73;;;4.97;;
74293;SDS011;64044;59.904;10.738;2024-01-30T02:50:33;12.50;;;4.80;;
74293;SDS011;64044;59.904;10.738;2024-01-30T02:52:59;13.73;;;5.40;;
74293;SDS011;64044;59.904;10.738;2024-01-30T02:55:24;9.15;;;4.30;;
74293;SDS011;64044;59.904;10.738;2024-01-30T02:57:50;10.85;;;5.15;;
74293;SDS011;64044;59.904;10.738;2024-01-30T03:00:16;12.52;;;5.35;;
74293;SDS011;64044;59.904;10.738;2024-01-30T03:02:42;12.20;;;4.88;;
74293;SDS011;64044;59.904;10.738;2024-01-30T03:05:08;14.48;;;6.13;;
74293;SDS011;64044;59.904;10.738;2024-01-30T03:07:34;10.60;;;4.75;;
74293;SDS011;64044;59.904;10.738;2024-01-30T03:10:00;10.35;;;4.68;;
74293;SDS011;64044;59.904;10.738;2024-01-30T03:12:25;10.57;;;5.25;;
74293;SDS011;64044;59.904;10.738;2024-01-30T03:14:51;10.95;;;5.00;;
74293;SDS011;64044;59.904;10.738;2024-01-30T03:17:17;15.80;;;5.15;;
74293;SDS011;64044;59.904;10.738;2024-01-30T03:19:43;11.95;;;5.13;;
74293;SDS011;64044;59.904;10.738;2024-01-30T03:22:09;13.07;;;5.15;;
74293;SDS011;64044;59.904;10.738;2024-01-30T03:24:34;12.27;;;5.18;;
74293;SDS011;64044;59.904;10.738;2024-01-30T03:27:00;13.70;;;5.43;;
74293;SDS011;64044;59.904;10.738;2024-01-30T03:29:26;11.55;;;5.43;;
74293;SDS011;64044;59.904;10.738;2024-01-30T03:31:52;14.95;;;5.13;;
74293;SDS011;64044;59.904;10.738;2024-01-30T03:34:18;15.27;;;5.25;;
74293;SDS011;64044;59.904;10.738;2024-01-30T03:36:43;13.55;;;5.10;;
74293;SDS011;64044;59.904;10.738;2024-01-30T03:39:09;10.73;;;5.10;;
74293;SDS011;64044;59.904;10.738;2024-01-30T03:41:35;10.57;;;5.00;;
74293;SDS011;64044;59.904;10.738;2024-01-30T03:44:01;10.77;;;4.63;;
74293;SDS011;64044;59.904;10.738;2024-01-30T03:46:27;11.50;;;5.15;;
74293;SDS011;64044;59.904;10.738;2024-01-30T03:48:53;10.77;;;4.63;;
74293;SDS011;64044;59.904;10.738;2024-01-30T03:51:18;13.75;;;5.55;;
74293;SDS011;64044;59.904;10.738;2024-01-30T03:53:44;10.73;;;4.47;;
74293;SDS011;64044;59.904;10.738;2024-01-30T03:56:11;10.57;;;4.80;;
74293;SDS011;64044;59.904;10.738;2024-01-30T03:58:40;11.00;;;4.40;;
74293;SDS011;64044;59.904;10.738;2024-01-30T04:01:06;10.38;;;4.68;;
74293;SDS011;64044;59.904;10.738;2024-01-30T04:03:32;9.13;;;4.55;;
74293;SDS011;64044;59.904;10.738;2024-01-30T04:05:58;11.20;;;5.07;;
74293;SDS011;64044;59.904;10.738;2024-01-30T04:08:24;8.65;;;4.72;;
74293;SDS011;64044;59.904;10.738;2024-01-30T04:10:50;10.65;;;4.88;;
74293;SDS011;64044;59.904;10.738;2024-01-30T04:13:15;11.70;;;4.38;;
74293;SDS011;64044;59.904;10.738;2024-01-30T04:15:41;12.13;;;4.40;;
74293;SDS011;64044;59.904;10.738;2024-01-30T04:18:07;12.27;;;4.80;;
74293;SDS011;64044;59.904;10.738;2024-01-30T04:20:33;12.00;;;4.43;;
74293;SDS011;64044;59.904;10.738;2024-01-30T04:22:58;11.77;;;4.78;;
74293;SDS011;64044;59.904;10.738;2024-01-30T04:25:24;10.10;;;4.82;;
74293;SDS011;64044;59.904;10.738;2024-01-30T04:27:50;11.65;;;5.20;;
74293;SDS011;64044;59.904;10.738;2024-01-30T04:30:16;13.52;;;4.75;;
74293;SDS011;64044;59.904;10.738;2024-01-30T04:32:42;11.73;;;4.75;;
74293;SDS011;64044;59.904;10.738;2024-01-30T04:35:08;12.20;;;5.18;;
74293;SDS011;64044;59.904;10.738;2024-01-30T04:37:34;17.02;;;5.70;;
74293;SDS011;64044;59.904;10.738;2024-01-30T04:40:00;12.32;;;5.03;;
74293;SDS011;64044;59.904;10.738;2024-01-30T04:42:26;9.63;;;5.25;;
74293;SDS011;64044;59.904;10.738;2024-01-30T04:44:51;13.73;;;5.10;;
74293;SDS011;64044;59.904;10.738;2024-01-30T04:47:17;11.07;;;4.97;;
74293;SDS011;64044;59.904;10.738;2024-01-30T04:49:43;9.57;;;5.05;;
74293;SDS011;64044;59.904;10.738;2024-01-30T04:52:09;15.93;;;6.13;;
74293;SDS011;64044;59.904;10.738;2024-01-30T04:54:35;13.00;;;4.60;;
74293;SDS011;64044;59.904;10.738;2024-01-30T04:57:01;12.82;;;5.43;;
74293;SDS011;64044;59.904;10.738;2024-01-30T04:59:27;10.77;;;5.25;;
74293;SDS011;64044;59.904;10.738;2024-01-30T05:01:54;12.02;;;5.07;;
74293;SDS011;64044;59.904;10.738;2024-01-30T05:04:19;10.88;;;5.13;;
74293;SDS011;64044;59.904;10.738;2024-01-30T05:06:45;11.50;;;4.68;;
74293;SDS011;64044;59.904;10.738;2024-01-30T05:09:11;12.45;;;5.00;;
74293;SDS011;64044;59.904;10.738;2024-01-30T05:11:40;12.43;;;4.55;;
74293;SDS011;64044;59.904;10.738;2024-01-30T05:14:06;13.52;;;5.30;;
74293;SDS011;64044;59.904;10.738;2024-01-30T05:16:32;10.38;;;4.65;;
74293;SDS011;64044;59.904;10.738;2024-01-30T05:18:58;14.02;;;5.15;;
74293;SDS011;64044;59.904;10.738;2024-01-30T05:21:24;11.20;;;4.72;;
74293;SDS011;64044;59.904;10.738;2024-01-30T05:26:41;14.85;;;5.95;;
74293;SDS011;64044;59.904;10.738;2024-01-30T05:29:07;11.43;;;5.07;;
74293;SDS011;64044;59.904;10.738;2024-01-30T05:31:33;10.60;;;4.75;;
74293;SDS011;64044;59.904;10.738;2024-01-30T05:33:59;13.45;;;4.88;;
74293;SDS011;64044;59.904;10.738;2024-01-30T05:36:25;10.70;;;4.55;;
74293;SDS011;64044;59.904;10.738;2024-01-30T05:38:51;12.05;;;5.18;;
74293;SDS011;64044;59.904;10.738;2024-01-30T05:41:17;12.85;;;4.35;;
74293;SDS011;64044;59.904;10.738;2024-01-30T05:43:42;10.77;;;4.07;;
74293;SDS011;64044;59.904;10.738;2024-01-30T05:46:08;10.57;;;4.43;;
74293;SDS011;64044;59.904;10.738;2024-01-30T05:48:34;11.02;;;4.55;;
74293;SDS011;64044;59.904;10.738;2024-01-30T05:51:00;15.05;;;4.68;;
74293;SDS011;64044;59.904;10.738;2024-01-30T05:53:27;11.13;;;4.40;;
74293;SDS011;64044;59.904;10.738;2024-01-30T05:55:52;11.93;;;4.65;;
74293;SDS011;64044;59.904;10.738;2024-01-30T05:58:18;14.98;;;5.18;;
74293;SDS011;64044;59.904;10.738;2024-01-30T06:00:47;10.95;;;4.20;;
74293;SDS011;64044;59.904;10.738;2024-01-30T06:03:13;9.60;;;4.20;;
74293;SDS011;64044;59.904;10.738;2024-01-30T06:05:39;11.73;;;4.85;;
74293;SDS011;64044;59.904;10.738;2024-01-30T06:08:05;12.63;;;4.30;;
74293;SDS011;64044;59.904;10.738;2024-01-30T06:10:31;10.05;;;4.80;;
74293;SDS011;64044;59.904;10.738;2024-01-30T06:12:56;13.10;;;5.95;;
74293;SDS011;64044;59.904;10.738;2024-01-30T06:15:22;12.20;;;4.68;;
74293;SDS011;64044;59.904;10.738;2024-01-30T06:17:48;14.05;;;4.38;;
74293;SDS011;64044;59.904;10.738;2024-01-30T06:20:13;10.00;;;4.25;;
74293;SDS011;64044;59.904;10.738;2024-01-30T06:22:39;11.35;;;4.05;;
74293;SDS011;64044;59.904;10.738;2024-01-30T06:25:05;11.80;;;3.40;;
74293;SDS011;64044;59.904;10.738;2024-01-30T06:27:31;12.13;;;3.50;;
74293;SDS011;64044;59.904;10.738;2024-01-30T06:29:56;10.02;;;4.03;;
74293;SDS011;64044;59.904;10.738;2024-01-30T06:32:22;11.63;;;3.95;;
74293;SDS011;64044;59.904;10.738;2024-01-30T06:34:48;14.00;;;3.17;;
74293;SDS011;64044;59.904;10.738;2024-01-30T06:37:14;6.30;;;2.97;;
74293;SDS011;64044;59.904;10.738;2024-01-30T06:39:39;10.30;;;3.20;;
74293;SDS011;64044;59.904;10.738;2024-01-30T06:42:05;9.52;;;3.03;;
74293;SDS011;64044;59.904;10.738;2024-01-30T06:44:31;8.30;;;2.83;;
74293;SDS011;64044;59.904;10.738;2024-01-30T06:46:57;7.30;;;2.60;;
74293;SDS011;64044;59.904;10.738;2024-01-30T06:49:22;9.38;;;2.63;;
74293;SDS011;64044;59.904;10.738;2024-01-30T06:51:48;9.75;;;2.55;;
74293;SDS011;64044;59.904;10.738;2024-01-30T06:54:14;8.30;;;2.05;;
74293;SDS011;64044;59.904;10.738;2024-01-30T06:56:39;5.70;;;2.08;;
74293;SDS011;64044;59.904;10.738;2024-01-30T06:59:05;7.20;;;2.28;;
74293;SDS011;64044;59.904;10.738;2024-01-30T07:01:31;7.07;;;2.08;;
74293;SDS011;64044;59.904;10.738;2024-01-30T07:03:57;5.60;;;1.90;;
74293;SDS011;64044;59.904;10.738;2024-01-30T07:06:23;5.75;;;1.70;;
74293;SDS011;64044;59.904;10.738;2024-01-30T07:08:49;7.28;;;1.85;;
74293;SDS011;64044;59.904;10.738;2024-01-30T07:11:18;8.35;;;1.90;;
74293;SDS011;64044;59.904;10.738;2024-01-30T07:13:46;7.38;;;2.00;;
74293;SDS011;64044;59.904;10.738;2024-01-30T07:16:13;6.00;;;2.28;;
74293;SDS011;64044;59.904;10.738;2024-01-30T07:18:39;7.72;;;1.75;;
74293;SDS011;64044;59.904;10.738;2024-01-30T07:21:05;7.70;;;3.03;;
74293;SDS011;64044;59.904;10.738;2024-01-30T07:23:30;10.88;;;2.85;;
74293;SDS011;64044;59.904;10.738;2024-01-30T07:25:56;11.15;;;3.35;;
74293;SDS011;64044;59.904;10.738;2024-01-30T07:28:22;6.85;;;2.25;;
74293;SDS011;64044;59.904;10.738;2024-01-30T07:30:48;9.45;;;2.75;;
74293;SDS011;64044;59.904;10.738;2024-01-30T07:33:15;7.55;;;2.30;;
74293;SDS011;64044;59.904;10.738;2024-01-30T07:35:41;6.22;;;2.20;;
74293;SDS011;64044;59.904;10.738;2024-01-30T07:38:07;5.45;;;1.90;;
74293;SDS011;64044;59.904;10.738;2024-01-30T07:40:32;6.30;;;2.08;;
74293;SDS011;64044;59.904;10.738;2024-01-30T07:42:58;9.75;;;2.08;;
74293;SDS011;64044;59.904;10.738;2024-01-30T07:45:24;8.60;;;2.58;;
74293;SDS011;64044;59.904;10.738;2024-01-30T07:47:52;10.77;;;3.15;;
74293;SDS011;64044;59.904;10.738;2024-01-30T07:50:18;9.30;;;2.90;;
74293;SDS011;64044;59.904;10.738;2024-01-30T07:52:44;9.73;;;3.17;;
74293;SDS011;64044;59.904;10.738;2024-01-30T07:55:10;10.88;;;3.45;;
74293;SDS011;64044;59.904;10.738;2024-01-30T07:57:38;7.50;;;3.38;;
74293;SDS011;64044;59.904;10.738;2024-01-30T08:00:05;14.32;;;2.97;;
74293;SDS011;64044;59.904;10.738;2024-01-30T08:02:32;4.68;;;2.17;;
74293;SDS011;64044;59.904;10.738;2024-01-30T08:04:58;9.57;;;3.55;;
74293;SDS011;64044;59.904;10.738;2024-01-30T08:07:24;9.30;;;3.03;;
74293;SDS011;64044;59.904;10.738;2024-01-30T08:09:49;10.57;;;3.85;;
74293;SDS011;64044;59.904;10.738;2024-01-30T08:12:15;7.28;;;3.05;;
74293;SDS011;64044;59.904;10.738;2024-01-30T08:14:41;8.70;;;3.08;;
74293;SDS011;64044;59.904;10.738;2024-01-30T08:17:07;9.93;;;2.75;;
74293;SDS011;64044;59.904;10.738;2024-01-30T08:19:33;7.30;;;2.20;;
74293;SDS011;64044;59.904;10.738;2024-01-30T08:21:58;4.82;;;2.10;;
74293;SDS011;64044;59.904;10.738;2024-01-30T08:24:24;7.03;;;2.00;;
74293;SDS011;64044;59.904;10.738;2024-01-30T08:26:50;8.13;;;2.35;;
74293;SDS011;64044;59.904;10.738;2024-01-30T08:29:16;5.60;;;1.63;;
74293;SDS011;64044;59.904;10.738;2024-01-30T08:31:42;8.43;;;1.85;;
74293;SDS011;64044;59.904;10.738;2024-01-30T08:34:08;8.02;;;2.13;;
74293;SDS011;64044;59.904;10.738;2024-01-30T08:36:33;8.52;;;2.70;;
74293;SDS011;64044;59.904;10.738;2024-01-30T08:38:59;7.35;;;2.03;;
74293;SDS011;64044;59.904;10.738;2024-01-30T08:41:25;8.25;;;1.98;;
74293;SDS011;64044;59.904;10.738;2024-01-30T08:43:51;4.90;;;2.15;;
74293;SDS011;64044;59.904;10.738;2024-01-30T08:46:18;9.35;;;2.40;;
74293;SDS011;64044;59.904;10.738;2024-01-30T08:48:44;10.73;;;3.22;;
74293;SDS011;64044;59.904;10.738;2024-01-30T08:51:10;10.45;;;4.40;;
74293;SDS011;64044;59.904;10.738;2024-01-30T08:53:36;15.57;;;5.00;;
74293;SDS011;64044;59.904;10.738;2024-01-30T08:56:02;14.48;;;5.40;;
74293;SDS011;64044;59.904;10.738;2024-01-30T08:58:28;12.73;;;4.75;;
74293;SDS011;64044;59.904;10.738;2024-01-30T09:00:54;8.80;;;3.90;;
74293;SDS011;64044;59.904;10.738;2024-01-30T09:03:20;10.05;;;3.47;;
74293;SDS011;64044;59.904;10.738;2024-01-30T09:05:46;7.22;;;3.00;;
74293;SDS011;64044;59.904;10.738;2024-01-30T09:08:12;10.23;;;3.45;;
74293;SDS011;64044;59.904;10.738;2024-01-30T09:10:37;10.43;;;3.67;;
74293;SDS011;64044;59.904;10.738;2024-01-30T09:13:03;12.07;;;3.83;;
74293;SDS011;64044;59.904;10.738;2024-01-30T09:15:29;8.88;;;4.15;;
74293;SDS011;64044;59.904;10.738;2024-01-30T09:17:55;14.77;;;6.47;;
74293;SDS011;64044;59.904;10.738;2024-01-30T09:20:20;14.35;;;5.97;;
74293;SDS011;64044;59.904;10.738;2024-01-30T09:22:47;14.70;;;5.90;;
74293;SDS011;64044;59.904;10.738;2024-01-30T09:25:14;17.60;;;5.88;;
74293;SDS011;64044;59.904;10.738;2024-01-30T09:27:40;10.35;;;4.82;;
74293;SDS011;64044;59.904;10.738;2024-01-30T09:30:06;11.68;;;4.82;;
74293;SDS011;64044;59.904;10.738;2024-01-30T09:32:32;10.68;;;4.20;;
74293;SDS011;64044;59.904;10.738;2024-01-30T09:34:58;17.40;;;4.57;;
74293;SDS011;64044;59.904;10.738;2024-01-30T09:37:24;14.98;;;4.43;;
74293;SDS011;64044;59.904;10.738;2024-01-30T09:39:49;21.02;;;5.60;;
74293;SDS011;64044;59.904;10.738;2024-01-30T09:44:58;27.23;;;9.45;;
74293;SDS011;64044;59.904;10.738;2024-01-30T09:47:24;17.00;;;5.63;;
74293;SDS011;64044;59.904;10.738;2024-01-30T09:49:50;16.27;;;4.95;;
74293;SDS011;64044;59.904;10.738;2024-01-30T09:52:16;18.50;;;5.72;;
74293;SDS011;64044;59.904;10.738;2024-01-30T09:54:43;14.57;;;5.38;;
74293;SDS011;64044;59.904;10.738;2024-01-30T09:57:11;13.80;;;5.60;;
74293;SDS011;64044;59.904;10.738;2024-01-30T09:59:36;15.48;;;4.50;;
74293;SDS011;64044;59.904;10.738;2024-01-30T10:02:02;13.75;;;3.72;;
74293;SDS011;64044;59.904;10.738;2024-01-30T10:04:29;8.85;;;2.80;;
74293;SDS011;64044;59.904;10.738;2024-01-30T10:06:55;5.78;;;2.33;;
74293;SDS011;64044;59.904;10.738;2024-01-30T10:09:23;7.28;;;2.42;;
74293;SDS011;64044;59.904;10.738;2024-01-30T10:11:50;6.28;;;2.55;;
74293;SDS011;64044;59.904;10.738;2024-01-30T10:14:16;5.80;;;2.22;;
74293;SDS011;64044;59.904;10.738;2024-01-30T10:16:42;11.05;;;2.60;;
74293;SDS011;64044;59.904;10.738;2024-01-30T10:19:10;7.05;;;2.60;;
74293;SDS011;64044;59.904;10.738;2024-01-30T10:21:36;8.75;;;2.80;;
74293;SDS011;64044;59.904;10.738;2024-01-30T10:24:02;17.63;;;3.15;;
74293;SDS011;64044;59.904;10.738;2024-01-30T10:26:28;8.10;;;2.35;;
74293;SDS011;64044;59.904;10.738;2024-01-30T10:28:54;6.43;;;2.58;;
74293;SDS011;64044;59.904;10.738;2024-01-30T10:31:20;5.70;;;2.10;;
74293;SDS011;64044;59.904;10.738;2024-01-30T10:33:46;9.32;;;2.47;;
74293;SDS011;64044;59.904;10.738;2024-01-30T10:36:39;10.30;;;3.35;;
74293;SDS011;64044;59.904;10.738;2024-01-30T10:39:08;12.80;;;2.42;;
74293;SDS011;64044;59.904;10.738;2024-01-30T10:41:39;8.55;;;2.65;;
74293;SDS011;64044;59.904;10.738;2024-01-30T10:44:11;9.95;;;3.15;;
74293;SDS011;64044;59.904;10.738;2024-01-30T10:46:39;10.75;;;2.50;;
74293;SDS011;64044;59.904;10.738;2024-01-30T10:49:07;9.50;;;3.03;;
74293;SDS011;64044;59.904;10.738;2024-01-30T10:51:35;10.10;;;2.70;;
74293;SDS011;64044;59.904;10.738;2024-01-30T10:54:03;15.77;;;3.80;;
74293;SDS011;64044;59.904;10.738;2024-01-30T10:56:32;11.88;;;3.55;;
74293;SDS011;64044;59.904;10.738;2024-01-30T10:58:58;9.45;;;3.40;;
74293;SDS011;64044;59.904;10.738;2024-01-30T11:01:25;6.75;;;3.72;;
74293;SDS011;64044;59.904;10.738;2024-01-30T11:03:53;7.55;;;2.92;;
74293;SDS011;64044;59.904;10.738;2024-01-30T11:06:23;9.00;;;3.13;;
74293;SDS011;64044;59.904;10.738;2024-01-30T11:09:02;12.38;;;3.20;;
74293;SDS011;64044;59.904;10.738;2024-01-30T11:11:33;9.90;;;2.50;;
74293;SDS011;64044;59.904;10.738;2024-01-30T11:14:29;7.25;;;2.83;;
74293;SDS011;64044;59.904;10.738;2024-01-30T11:16:58;8.05;;;2.83;;
74293;SDS011;64044;59.904;10.738;2024-01-30T11:19:30;9.30;;;3.33;;
74293;SDS011;64044;59.904;10.738;2024-01-30T11:21:56;10.60;;;3.65;;
74293;SDS011;64044;59.904;10.738;2024-01-30T11:24:23;10.25;;;3.45;;
74293;SDS011;64044;59.904;10.738;2024-01-30T11:26:49;9.65;;;2.80;;
74293;SDS011;64044;59.904;10.738;2024-01-30T11:29:23;7.20;;;2.72;;
74293;SDS011;64044;59.904;10.738;2024-01-30T11:31:54;6.93;;;2.97;;
74293;SDS011;64044;59.904;10.738;2024-01-30T11:34:20;7.73;;;3.00;;
74293;SDS011;64044;59.904;10.738;2024-01-30T11:36:59;8.82;;;3.28;;
74293;SDS011;64044;59.904;10.738;2024-01-30T11:39:31;6.53;;;2.85;;
74293;SDS011;64044;59.904;10.738;2024-01-30T11:41:57;13.38;;;2.70;;
74293;SDS011;64044;59.904;10.738;2024-01-30T11:44:24;11.13;;;2.50;;
74293;SDS011;64044;59.904;10.738;2024-01-30T11:46:51;9.70;;;2.88;;
74293;SDS011;64044;59.904;10.738;2024-01-30T11:49:17;8.63;;;2.58;;
74293;SDS011;64044;59.904;10.738;2024-01-30T11:51:46;9.57;;;2.40;;
74293;SDS011;64044;59.904;10.738;2024-01-30T11:54:18;7.38;;;2.65;;
74293;SDS011;64044;59.904;10.738;2024-01-30T11:56:43;7.82;;;2.58;;
74293;SDS011;64044;59.904;10.738;2024-01-30T11:59:09;12.60;;;3.08;;
74293;SDS011;64044;59.904;10.738;2024-01-30T12:01:35;10.07;;;2.42;;
74293;SDS011;64044;59.904;10.738;2024-01-30T12:04:01;13.27;;;3.50;;
74293;SDS011;64044;59.904;10.738;2024-01-30T12:06:28;10.57;;;2.40;;
74293;SDS011;64044;59.904;10.738;2024-01-30T12:09:00;9.82;;;3.50;;
74293;SDS011;64044;59.904;10.738;2024-01-30T12:11:30;12.05;;;2.92;;
74293;SDS011;64044;59.904;10.738;2024-01-30T12:13:56;10.75;;;2.70;;
74293;SDS011;64044;59.904;10.738;2024-01-30T12:16:22;7.60;;;2.50;;
74293;SDS011;64044;59.904;10.738;2024-01-30T12:18:48;7.45;;;2.90;;
74293;SDS011;64044;59.904;10.738;2024-01-30T12:21:17;11.35;;;2.83;;
74293;SDS011;64044;59.904;10.738;2024-01-30T12:23:43;15.32;;;3.65;;
74293;SDS011;64044;59.904;10.738;2024-01-30T12:26:10;7.85;;;3.08;;
74293;SDS011;64044;59.904;10.738;2024-01-30T12:28:46;9.50;;;2.97;;
74293;SDS011;64044;59.904;10.738;2024-01-30T12:31:13;12.85;;;2.80;;
74293;SDS011;64044;59.904;10.738;2024-01-30T12:33:38;9.65;;;2.72;;
74293;SDS011;64044;59.904;10.738;2024-01-30T12:36:04;12.50;;;2.63;;
74293;SDS011;64044;59.904;10.738;2024-01-30T12:38:30;8.32;;;2.90;;
74293;SDS011;64044;59.904;10.738;2024-01-30T12:40:56;9.07;;;2.80;;
74293;SDS011;64044;59.904;10.738;2024-01-30T12:43:26;10.43;;;2.90;;
74293;SDS011;64044;59.904;10.738;2024-01-30T12:45:53;10.90;;;2.83;;
74293;SDS011;64044;59.904;10.738;2024-01-30T12:48:18;10.98;;;3.15;;
74293;SDS011;64044;59.904;10.738;2024-01-30T12:50:44;13.45;;;2.88;;
74293;SDS011;64044;59.904;10.738;2024-01-30T12:53:10;11.15;;;3.30;;
74293;SDS011;64044;59.904;10.738;2024-01-30T12:55:37;9.52;;;2.63;;
74293;SDS011;64044;59.904;10.738;2024-01-30T12:58:03;12.20;;;3.22;;
74293;SDS011;64044;59.904;10.738;2024-01-30T13:00:29;6.85;;;2.75;;
74293;SDS011;64044;59.904;10.738;2024-01-30T13:02:55;9.18;;;3.38;;
74293;SDS011;64044;59.904;10.738;2024-01-30T13:05:21;6.88;;;2.38;;
74293;SDS011;64044;59.904;10.738;2024-01-30T13:07:47;11.70;;;2.97;;
74293;SDS011;64044;59.904;10.738;2024-01-30T13:10:12;18.40;;;3.90;;
74293;SDS011;64044;59.904;10.738;2024-01-30T13:12:38;8.55;;;2.30;;
74293;SDS011;64044;59.904;10.738;2024-01-30T13:15:04;10.10;;;2.72;;
74293;SDS011;64044;59.904;10.738;2024-01-30T13:17:31;8.48;;;2.40;;
74293;SDS011;64044;59.904;10.738;2024-01-30T13:19:57;7.93;;;2.22;;
74293;SDS011;64044;59.904;10.738;2024-01-30T13:22:23;5.47;;;2.05;;
74293;SDS011;64044;59.904;10.738;2024-01-30T13:24:49;7.40;;;2.38;;
74293;SDS011;64044;59.904;10.738;2024-01-30T13:27:15;7.95;;;2.38;;
74293;SDS011;64044;59.904;10.738;2024-01-30T13:29:41;7.63;;;2.72;;
74293;SDS011;64044;59.904;10.738;2024-01-30T13:32:07;7.20;;;2.35;;
74293;SDS011;64044;59.904;10.738;2024-01-30T13:34:33;4.43;;;2.30;;
74293;SDS011;64044;59.904;10.738;2024-01-30T13:36:58;11.38;;;2.92;;
74293;SDS011;64044;59.904;10.738;2024-01-30T13:39:24;10.95;;;2.55;;
74293;SDS011;64044;59.904;10.738;2024-01-30T13:41:50;7.90;;;3.03;;
74293;SDS011;64044;59.904;10.738;2024-01-30T13:44:16;6.78;;;2.42;;
74293;SDS011;64044;59.904;10.738;2024-01-30T13:46:42;6.15;;;2.30;;
74293;SDS011;64044;59.904;10.738;2024-01-30T13:49:08;8.95;;;2.58;;
74293;SDS011;64044;59.904;10.738;2024-01-30T13:51:34;5.82;;;2.25;;
74293;SDS011;64044;59.904;10.738;2024-01-30T13:54:00;7.55;;;2.85;;
74293;SDS011;64044;59.904;10.738;2024-01-30T13:56:26;7.32;;;2.05;;
74293;SDS011;64044;59.904;10.738;2024-01-30T13:58:52;8.05;;;2.38;;
74293;SDS011;64044;59.904;10.738;2024-01-30T14:01:18;8.52;;;2.53;;
74293;SDS011;64044;59.904;10.738;2024-01-30T14:03:44;11.75;;;2.72;;
74293;SDS011;64044;59.904;10.738;2024-01-30T14:06:10;7.78;;;2.47;;
74293;SDS011;64044;59.904;10.738;2024-01-30T14:08:37;6.70;;;2.15;;
74293;SDS011;64044;59.904;10.738;2024-01-30T14:11:03;5.13;;;2.50;;
74293;SDS011;64044;59.904;10.738;2024-01-30T14:13:28;9.00;;;2.20;;
74293;SDS011;64044;59.904;10.738;2024-01-30T14:15:56;7.45;;;3.15;;
74293;SDS011;64044;59.904;10.738;2024-01-30T14:18:22;9.23;;;2.60;;
74293;SDS011;64044;59.904;10.738;2024-01-30T14:20:47;7.93;;;2.30;;
74293;SDS011;64044;59.904;10.738;2024-01-30T14:23:13;8.25;;;1.77;;
74293;SDS011;64044;59.904;10.738;2024-01-30T14:25:39;7.20;;;2.45;;
74293;SDS011;64044;59.904;10.738;2024-01-30T14:28:05;6.70;;;2.40;;